createdAt,value
2017-12-19T00:01:24.771Z,2.13
2017-12-19T00:03:57.474Z,2.02
2017-12-19T00:06:31.024Z,1.97
2017-12-19T00:09:03.844Z,1.96
2017-12-19T00:11:36.615Z,1.94
2017-12-19T00:14:09.128Z,2.08
2017-12-19T00:16:41.648Z,2.16
2017-12-19T00:19:14.134Z,2.15
2017-12-19T00:21:49.371Z,2.20
2017-12-19T00:24:21.863Z,2.22
2017-12-19T00:26:54.371Z,2.08
2017-12-19T00:29:27.377Z,1.96
2017-12-19T00:32:00.474Z,1.94
2017-12-19T00:34:33.760Z,1.93
2017-12-19T00:37:06.615Z,1.94
2017-12-19T00:39:39.428Z,1.92
2017-12-19T00:42:13.132Z,1.94
2017-12-19T02:09:51.843Z,1.63
2017-12-19T02:12:24.502Z,1.57
2017-12-19T02:14:57.224Z,1.54
2017-12-19T02:17:29.913Z,1.59
2017-12-19T02:20:02.654Z,1.57
2017-12-19T02:22:35.352Z,1.73
2017-12-19T02:25:07.906Z,1.25
2017-12-19T02:27:40.396Z,1.04
2017-12-19T02:30:13.344Z,1.01
2017-12-19T02:32:47.236Z,0.96
2017-12-19T02:35:20.337Z,0.99
2017-12-19T02:37:53.360Z,1.00
2017-12-19T02:40:26.409Z,1.01
2017-12-19T02:43:10.987Z,1.08
2017-12-19T02:45:43.729Z,1.08
2017-12-19T02:48:18.480Z,1.12
2017-12-19T02:50:51.209Z,1.12
2017-12-19T02:53:24.204Z,1.33
2017-12-19T02:55:57.286Z,1.52
2017-12-19T02:58:30.273Z,1.59
2017-12-19T03:01:03.344Z,1.54
2017-12-19T03:03:38.677Z,1.48
2017-12-19T03:06:11.776Z,1.41
2017-12-19T03:08:44.761Z,1.22
2017-12-19T03:11:17.955Z,1.25
2017-12-19T03:13:50.694Z,1.26
2017-12-19T03:16:23.230Z,1.33
2017-12-19T03:18:56.407Z,1.33
2017-12-19T03:21:29.750Z,1.31
2017-12-19T03:24:03.398Z,1.23
2017-12-19T03:26:36.732Z,1.22
2017-12-19T03:29:09.865Z,1.25
2017-12-19T03:31:42.895Z,1.28
2017-12-19T03:34:16.033Z,1.42
2017-12-19T03:36:48.833Z,1.34
2017-12-19T03:39:21.344Z,1.34
2017-12-19T03:41:53.856Z,1.53
2017-12-19T03:44:26.342Z,1.64
2017-12-19T03:46:58.876Z,1.67
2017-12-19T03:49:31.826Z,1.65
2017-12-19T03:52:04.419Z,1.70
2017-12-19T03:54:37.035Z,1.70
2017-12-19T03:57:09.654Z,1.73
2017-12-19T03:59:42.186Z,1.71
2017-12-19T04:02:14.944Z,1.77
2017-12-19T04:04:47.427Z,1.78
2017-12-19T04:07:19.992Z,1.79
2017-12-19T04:09:52.474Z,1.81
2017-12-19T04:12:24.988Z,1.74
2017-12-19T04:14:57.492Z,1.78
2017-12-19T04:17:30.019Z,1.80
2017-12-19T04:20:02.496Z,1.80
2017-12-19T04:22:35.009Z,1.76
2017-12-19T04:25:07.553Z,1.70
2017-12-19T04:27:40.165Z,1.76
2017-12-19T04:30:12.656Z,1.76
2017-12-19T04:32:46.800Z,1.78
2017-12-19T04:35:20.272Z,1.82
2017-12-19T04:37:53.439Z,1.76
2017-12-19T04:40:25.985Z,2.62
2017-12-19T04:42:58.517Z,2.84
2017-12-19T04:45:30.999Z,3.03
2017-12-19T04:48:03.776Z,3.04
2017-12-19T04:50:36.259Z,3.21
2017-12-19T04:53:08.780Z,3.13
2017-12-19T04:55:41.267Z,3.27
2017-12-19T04:58:13.783Z,3.19
2017-12-19T05:00:47.193Z,3.39
2017-12-19T05:03:19.704Z,3.53
2017-12-19T05:05:52.191Z,3.16
2017-12-19T05:08:24.899Z,3.26
2017-12-19T05:10:57.374Z,3.33
2017-12-19T05:13:29.879Z,3.34
2017-12-19T05:16:02.439Z,3.34
2017-12-19T05:18:34.954Z,3.36
2017-12-19T05:21:07.436Z,3.30
2017-12-19T05:23:39.940Z,3.33
2017-12-19T05:26:12.523Z,3.34
2017-12-19T05:28:47.191Z,3.39
2017-12-19T05:31:19.765Z,3.39
2017-12-19T05:33:52.412Z,3.41
2017-12-19T05:36:26.015Z,3.37
2017-12-19T05:38:58.616Z,3.41
2017-12-19T05:41:31.374Z,3.40
2017-12-19T05:44:03.981Z,3.22
2017-12-19T05:46:37.257Z,3.20
2017-12-19T05:49:10.191Z,3.17
2017-12-19T05:51:42.750Z,3.23
2017-12-19T05:54:16.665Z,3.25
2017-12-19T05:56:49.149Z,3.19
2017-12-19T05:59:21.661Z,3.10
2017-12-19T06:01:54.159Z,2.89
2017-12-19T06:04:26.671Z,2.72
2017-12-19T06:06:59.176Z,2.63
2017-12-19T06:09:31.703Z,2.51
2017-12-19T06:12:04.204Z,2.44
2017-12-19T06:14:36.735Z,2.33
2017-12-19T06:17:09.220Z,2.18
2017-12-19T06:19:41.790Z,2.11
2017-12-19T06:22:14.328Z,2.04
2017-12-19T06:24:50.129Z,2.00
2017-12-19T06:27:22.627Z,2.01
2017-12-19T06:29:55.186Z,2.12
2017-12-19T06:32:27.685Z,2.05
2017-12-19T06:35:00.210Z,2.08
2017-12-19T06:37:32.702Z,2.17
2017-12-19T06:40:05.232Z,2.17
2017-12-19T06:42:37.728Z,2.18
2017-12-19T06:45:10.300Z,2.20
2017-12-19T06:47:42.804Z,2.16
2017-12-19T06:50:16.513Z,2.09
2017-12-19T06:52:49.006Z,2.09
2017-12-19T06:55:22.396Z,2.13
2017-12-19T06:57:54.884Z,2.13
2017-12-19T07:00:27.396Z,2.14
2017-12-19T07:02:59.892Z,2.13
2017-12-19T07:05:32.430Z,2.12
2017-12-19T07:08:04.939Z,2.11
2017-12-19T07:10:37.454Z,2.17
2017-12-19T07:13:09.935Z,2.22
2017-12-19T07:15:42.447Z,2.27
2017-12-19T07:18:17.056Z,2.25
2017-12-19T07:20:50.611Z,2.29
2017-12-19T07:23:23.105Z,2.46
2017-12-19T07:25:55.619Z,2.48
2017-12-19T07:28:28.117Z,2.42
2017-12-19T07:31:00.633Z,2.37
2017-12-19T07:33:33.125Z,2.40
2017-12-19T07:36:05.634Z,2.43
2017-12-19T07:38:38.119Z,2.47
2017-12-19T07:41:10.636Z,2.46
2017-12-19T07:43:43.126Z,2.96
2017-12-19T07:46:18.017Z,3.13
2017-12-19T07:48:50.514Z,3.18
2017-12-19T07:51:23.033Z,3.20
2017-12-19T07:56:53.004Z,3.28
2017-12-19T07:59:25.502Z,3.28
2017-12-19T08:01:58.021Z,3.29
2017-12-19T08:04:30.517Z,3.30
2017-12-19T08:07:03.044Z,3.20
2017-12-19T08:09:35.539Z,3.23
2017-12-19T08:12:08.065Z,3.29
2017-12-19T08:14:40.558Z,3.40
2017-12-19T08:17:13.076Z,3.38
2017-12-19T08:19:48.058Z,3.43
2017-12-19T08:22:20.585Z,3.43
2017-12-19T08:24:53.087Z,3.41
2017-12-19T08:27:25.615Z,3.49
2017-12-19T08:29:58.121Z,3.43
2017-12-19T08:32:30.667Z,3.44
2017-12-19T08:35:03.268Z,3.42
2017-12-19T08:37:35.789Z,3.52
2017-12-19T08:40:08.280Z,3.57
2017-12-19T08:42:40.789Z,3.63
2017-12-19T08:45:13.281Z,3.64
2017-12-19T08:47:45.799Z,3.68
2017-12-19T08:50:18.318Z,3.69
2017-12-19T08:52:50.827Z,3.71
2017-12-19T08:55:23.438Z,3.72
2017-12-19T08:57:55.946Z,3.84
2017-12-19T09:00:28.792Z,3.95
2017-12-19T09:03:01.453Z,4.00
2017-12-19T09:05:33.973Z,4.02
2017-12-19T09:08:06.494Z,4.12
2017-12-19T09:10:39.003Z,4.22
2017-12-19T09:13:11.508Z,4.37
2017-12-19T09:15:43.999Z,4.37
2017-12-19T09:18:18.113Z,4.34
2017-12-19T09:20:50.627Z,4.41
2017-12-19T09:23:23.135Z,4.36
2017-12-19T09:31:27.450Z,4.21
2017-12-19T09:34:01.984Z,4.19
2017-12-19T09:36:40.683Z,4.22
2017-12-19T09:39:14.717Z,4.24
2017-12-19T09:41:47.489Z,4.31
2017-12-19T09:44:20.122Z,4.30
2017-12-19T09:46:53.883Z,4.32
2017-12-19T09:49:29.354Z,4.38
2017-12-19T09:52:08.157Z,4.40
2017-12-19T09:54:41.454Z,4.40
2017-12-19T09:57:13.958Z,4.41
2017-12-19T09:59:50.187Z,4.52
2017-12-19T10:02:24.998Z,4.57
2017-12-19T10:05:00.083Z,4.58
2017-12-19T10:07:34.943Z,4.58
2017-12-19T10:10:07.634Z,4.56
2017-12-19T10:12:40.135Z,4.55
2017-12-19T10:15:12.672Z,4.52
2017-12-19T10:17:45.237Z,4.55
2017-12-19T10:20:23.662Z,4.56
2017-12-19T10:22:57.811Z,4.60
2017-12-19T10:25:30.841Z,4.67
2017-12-19T10:28:03.421Z,4.72
2017-12-19T10:30:37.553Z,4.74
2017-12-19T10:33:10.085Z,4.74
2017-12-19T10:35:42.610Z,4.77
2017-12-19T10:38:15.183Z,4.86
2017-12-19T10:40:51.872Z,5.03
2017-12-19T10:43:25.315Z,5.77
2017-12-19T10:46:00.508Z,5.83
2017-12-19T10:48:33.445Z,5.74
2017-12-19T10:51:06.464Z,4.96
2017-12-19T10:53:38.988Z,4.84
2017-12-19T10:56:11.546Z,4.87
2017-12-19T10:58:44.104Z,5.23
2017-12-19T11:01:19.065Z,5.38
2017-12-19T11:04:01.069Z,5.38
2017-12-19T11:06:36.916Z,5.43
2017-12-19T11:09:09.488Z,5.41
2017-12-19T11:11:42.318Z,5.36
2017-12-19T11:14:14.858Z,5.08
2017-12-19T11:16:49.007Z,4.96
2017-12-19T11:19:24.238Z,4.97
2017-12-19T11:21:57.722Z,4.98
2017-12-19T11:24:36.555Z,5.05
2017-12-19T11:27:09.071Z,5.06
2017-12-19T11:29:41.651Z,5.06
2017-12-19T11:32:14.404Z,5.21
2017-12-19T11:34:47.894Z,5.29
2017-12-19T11:37:21.643Z,5.33
2017-12-19T11:39:54.260Z,5.36
2017-12-19T11:42:27.061Z,5.33
2017-12-19T11:44:59.763Z,5.23
2017-12-19T11:47:33.145Z,5.30
2017-12-19T11:50:05.726Z,5.32
2017-12-19T11:52:38.337Z,5.35
2017-12-19T11:55:10.860Z,5.19
2017-12-19T11:57:43.428Z,5.23
2017-12-19T12:00:16.386Z,5.40
2017-12-19T12:02:51.714Z,5.51
2017-12-19T12:05:24.366Z,5.57
2017-12-19T12:07:56.864Z,5.57
2017-12-19T12:10:29.405Z,5.56
2017-12-19T12:13:02.052Z,5.51
2017-12-19T12:15:34.572Z,5.54
2017-12-19T12:18:07.083Z,5.53
2017-12-19T12:20:39.605Z,5.49
2017-12-19T12:23:12.110Z,5.51
2017-12-19T12:25:44.640Z,5.52
2017-12-19T12:28:17.883Z,5.57
2017-12-19T12:30:51.210Z,5.63
2017-12-19T12:33:23.934Z,5.60
2017-12-19T12:35:56.552Z,5.61
2017-12-19T12:38:29.154Z,5.55
2017-12-19T12:41:01.882Z,5.37
2017-12-19T12:43:34.371Z,5.12
2017-12-19T12:46:06.895Z,5.08
2017-12-19T12:48:39.408Z,5.14
2017-12-19T12:51:11.928Z,5.13
2017-12-19T12:53:44.431Z,5.15
2017-12-19T12:56:17.464Z,5.19
2017-12-19T12:58:50.102Z,5.21
2017-12-19T13:01:22.653Z,5.22
2017-12-19T13:03:55.388Z,5.26
2017-12-19T13:06:27.957Z,5.25
2017-12-19T13:09:00.521Z,5.19
2017-12-19T13:11:33.027Z,5.22
2017-12-19T13:14:05.789Z,5.29
2017-12-19T13:16:38.420Z,5.29
2017-12-19T13:19:10.923Z,5.27
2017-12-19T13:21:47.296Z,5.27
2017-12-19T13:24:20.178Z,5.35
2017-12-19T13:26:52.850Z,5.39
2017-12-19T13:29:25.330Z,5.49
2017-12-19T13:31:58.345Z,5.45
2017-12-19T13:34:30.868Z,5.45
2017-12-19T13:37:03.413Z,5.47
2017-12-19T13:39:35.920Z,5.50
2017-12-19T13:42:08.444Z,5.58
2017-12-19T13:44:40.957Z,5.57
2017-12-19T13:47:13.515Z,5.62
2017-12-19T13:49:47.064Z,5.65
2017-12-19T13:52:20.037Z,5.60
2017-12-19T13:54:53.126Z,5.59
2017-12-19T13:57:26.092Z,5.54
2017-12-19T13:59:58.697Z,5.50
2017-12-19T14:02:31.361Z,5.38
2017-12-19T14:05:03.872Z,5.43
2017-12-19T14:07:36.402Z,5.48
2017-12-19T14:10:08.904Z,5.45
2017-12-19T14:12:41.421Z,5.62
2017-12-19T14:15:13.932Z,6.27
2017-12-19T14:17:46.540Z,6.40
2017-12-19T14:20:21.287Z,6.43
2017-12-19T14:22:53.940Z,6.44
2017-12-19T14:25:26.448Z,6.47
2017-12-19T14:27:58.994Z,6.52
2017-12-19T14:30:31.516Z,6.44
2017-12-19T14:33:04.046Z,6.45
2017-12-19T14:35:36.531Z,6.37
2017-12-19T14:38:09.123Z,6.33
2017-12-19T14:40:41.716Z,6.26
2017-12-19T14:43:14.324Z,6.26
2017-12-19T14:45:47.862Z,6.30
2017-12-19T14:48:20.840Z,6.25
2017-12-19T14:50:53.379Z,6.24
2017-12-19T14:53:25.947Z,6.17
2017-12-19T14:55:58.517Z,6.05
2017-12-19T14:58:31.079Z,6.05
2017-12-19T15:01:03.561Z,6.01
2017-12-19T15:03:36.082Z,6.02
2017-12-19T15:06:08.594Z,6.03
2017-12-19T15:08:41.136Z,6.05
2017-12-19T15:11:13.632Z,6.02
2017-12-19T15:13:47.837Z,5.97
2017-12-19T15:16:20.492Z,6.03
2017-12-19T15:18:53.211Z,6.02
2017-12-19T15:21:25.776Z,6.04
2017-12-19T15:23:58.411Z,6.12
2017-12-19T15:26:30.930Z,6.08
2017-12-19T15:29:03.444Z,5.95
2017-12-19T15:31:36.098Z,5.98
2017-12-19T15:34:08.799Z,5.98
2017-12-19T15:36:41.282Z,5.91
2017-12-19T15:39:13.807Z,5.90
2017-12-19T15:41:46.576Z,5.87
2017-12-19T15:44:19.109Z,5.93
2017-12-19T15:46:52.396Z,5.90
2017-12-19T15:49:25.143Z,5.91
2017-12-19T15:51:57.769Z,5.91
2017-12-19T15:54:30.369Z,5.84
2017-12-19T15:57:02.949Z,5.84
2017-12-19T15:59:35.476Z,5.78
2017-12-19T16:02:07.975Z,5.83
2017-12-19T16:04:40.484Z,5.83
2017-12-19T16:07:13.025Z,5.82
2017-12-19T16:09:45.548Z,5.82
2017-12-19T16:12:19.088Z,5.77
2017-12-19T16:14:51.624Z,5.72
2017-12-19T16:17:24.180Z,5.71
2017-12-19T16:19:56.786Z,5.67
2017-12-19T16:22:30.426Z,5.65
2017-12-19T16:25:03.089Z,5.65
2017-12-19T16:27:35.629Z,5.68
2017-12-19T16:30:08.137Z,5.71
2017-12-19T16:32:40.638Z,5.75
2017-12-19T16:35:13.275Z,5.76
2017-12-19T16:37:45.772Z,5.77
2017-12-19T16:40:19.033Z,5.79
2017-12-19T16:42:51.531Z,5.82
2017-12-19T16:45:24.692Z,5.81
2017-12-19T16:47:57.342Z,5.77
2017-12-19T16:50:29.944Z,5.81
2017-12-19T16:53:02.466Z,5.82
2017-12-19T16:55:34.975Z,5.81
2017-12-19T16:58:07.485Z,5.79
2017-12-19T17:00:40.010Z,5.77
2017-12-19T17:03:12.507Z,5.78
2017-12-19T17:05:45.101Z,5.78
2017-12-19T17:08:17.796Z,5.73
2017-12-19T17:10:51.210Z,5.70
2017-12-19T17:13:23.759Z,5.67
2017-12-19T17:15:56.427Z,5.66
2017-12-19T17:18:28.962Z,5.66
2017-12-19T17:21:01.554Z,5.61
2017-12-19T17:23:34.107Z,5.53
2017-12-19T17:26:06.709Z,5.59
2017-12-19T17:28:39.205Z,5.62
2017-12-19T17:31:11.726Z,5.62
2017-12-19T17:33:44.277Z,5.60
2017-12-19T17:36:17.515Z,5.61
2017-12-19T17:38:50.034Z,5.62
2017-12-19T17:41:22.558Z,5.58
2017-12-19T17:43:55.094Z,5.53
2017-12-19T17:46:27.660Z,5.45
2017-12-19T17:49:00.281Z,5.53
2017-12-19T17:51:32.829Z,5.55
2017-12-19T17:54:05.360Z,5.45
2017-12-19T17:56:37.860Z,5.43
2017-12-19T17:59:10.367Z,5.46
2017-12-19T18:01:42.905Z,5.55
2017-12-19T18:04:15.428Z,5.55
2017-12-19T18:06:48.855Z,5.60
2017-12-19T18:09:21.361Z,5.63
2017-12-19T18:11:53.897Z,5.61
2017-12-19T18:14:26.410Z,5.63
2017-12-19T18:16:58.930Z,5.58
2017-12-19T18:19:31.436Z,5.62
2017-12-19T18:22:03.955Z,5.58
2017-12-19T18:24:36.464Z,5.59
2017-12-19T18:27:08.976Z,5.54
2017-12-19T18:29:41.473Z,5.64
2017-12-19T18:32:14.017Z,5.63
2017-12-19T18:34:46.538Z,5.64
2017-12-19T18:37:19.607Z,5.65
2017-12-19T18:39:52.610Z,5.66
2017-12-19T18:42:25.134Z,5.67
2017-12-19T18:44:57.859Z,5.59
2017-12-19T18:47:30.499Z,5.61
2017-12-19T18:50:03.181Z,5.66
2017-12-19T18:52:35.791Z,5.63
2017-12-19T18:55:08.297Z,5.66
2017-12-19T18:57:40.810Z,5.74
2017-12-19T19:00:13.652Z,5.75
2017-12-19T19:02:47.196Z,5.79
2017-12-19T19:05:19.796Z,5.81
2017-12-19T19:07:52.422Z,5.78
2017-12-19T19:10:24.919Z,5.73
2017-12-19T19:12:57.432Z,5.73
2017-12-19T19:15:29.941Z,5.73
2017-12-19T19:18:02.566Z,5.74
2017-12-19T19:20:35.078Z,5.72
2017-12-19T19:23:07.594Z,5.73
2017-12-19T19:25:40.091Z,5.74
2017-12-19T19:28:12.599Z,5.78
2017-12-19T19:30:45.092Z,5.74
2017-12-19T19:33:17.615Z,5.74
2017-12-19T19:35:50.225Z,5.72
2017-12-19T19:38:22.889Z,5.72
2017-12-19T19:40:55.499Z,5.74
2017-12-19T19:43:28.084Z,5.74
2017-12-19T19:46:00.583Z,5.74
2017-12-19T19:48:33.096Z,5.75
2017-12-19T19:51:05.669Z,5.78
2017-12-19T19:53:38.186Z,5.78
2017-12-19T19:56:10.682Z,5.84
2017-12-19T19:58:43.267Z,5.85
2017-12-19T20:01:15.766Z,5.86
2017-12-19T20:03:49.281Z,5.86
2017-12-19T20:06:21.879Z,5.85
2017-12-19T20:08:54.590Z,5.87
2017-12-19T20:11:27.148Z,5.84
2017-12-19T20:13:59.672Z,5.83
2017-12-19T20:16:32.198Z,5.91
2017-12-19T20:19:04.743Z,5.88
2017-12-19T20:21:37.238Z,5.93
2017-12-19T20:24:09.760Z,5.90
2017-12-19T20:26:42.246Z,5.91
2017-12-19T20:29:14.799Z,5.84
2017-12-19T20:31:47.760Z,5.84
2017-12-19T20:34:20.285Z,5.90
2017-12-19T20:36:52.818Z,5.90
2017-12-19T20:39:25.349Z,5.93
2017-12-19T20:41:57.991Z,5.94
2017-12-19T20:44:30.504Z,5.96
2017-12-19T20:47:02.983Z,5.94
2017-12-19T20:49:37.548Z,5.93
2017-12-19T20:52:10.058Z,6.04
2017-12-19T20:54:42.559Z,6.00
2017-12-19T20:57:15.048Z,5.93
2017-12-19T20:59:47.653Z,5.99
2017-12-19T21:02:20.546Z,6.06
2017-12-19T21:04:53.202Z,5.96
2017-12-19T21:07:25.737Z,5.90
2017-12-19T21:09:58.409Z,5.95
2017-12-19T21:12:30.902Z,5.96
2017-12-19T21:15:03.462Z,5.99
2017-12-19T21:17:35.948Z,6.01
2017-12-19T21:20:08.770Z,5.97
2017-12-19T21:22:41.346Z,6.00
2017-12-19T21:25:13.951Z,6.02
2017-12-19T21:27:46.691Z,6.07
2017-12-19T21:30:19.255Z,6.12
2017-12-19T21:32:52.014Z,6.15
2017-12-19T21:35:24.557Z,6.08
2017-12-19T21:37:57.068Z,6.08
2017-12-19T21:40:29.603Z,6.13
2017-12-19T21:43:02.115Z,6.13
2017-12-19T21:45:34.631Z,6.09
2017-12-19T21:48:07.128Z,6.06
2017-12-19T21:50:39.638Z,5.78
2017-12-19T21:53:12.141Z,5.69
2017-12-19T21:55:44.658Z,5.72
2017-12-19T21:58:17.157Z,5.72
2017-12-19T22:00:50.524Z,5.77
2017-12-19T22:03:23.263Z,5.71
2017-12-19T22:05:55.807Z,5.67
2017-12-19T22:08:28.368Z,5.72
2017-12-19T22:11:01.927Z,5.80
2017-12-19T22:13:34.420Z,5.85
2017-12-19T22:16:06.997Z,5.88
2017-12-19T22:18:39.493Z,5.89
2017-12-19T22:21:12.007Z,5.91
2017-12-19T22:23:44.502Z,5.90
2017-12-19T22:26:17.029Z,5.92
2017-12-19T22:28:56.180Z,5.94
2017-12-19T22:31:23.732Z,5.83
2017-12-19T22:33:56.636Z,5.75
2017-12-19T22:36:29.204Z,5.72
2017-12-19T22:39:01.707Z,5.85
2017-12-19T22:41:34.229Z,5.91
2017-12-19T22:44:09.408Z,5.96
2017-12-19T22:46:42.109Z,5.90
2017-12-19T22:49:14.664Z,5.76
2017-12-19T22:51:47.184Z,5.70
2017-12-19T22:54:20.454Z,5.82
2017-12-19T22:56:53.149Z,5.79
2017-12-19T22:59:25.809Z,5.83
2017-12-19T23:01:58.358Z,5.88
2017-12-19T23:04:30.887Z,5.90
2017-12-19T23:07:03.384Z,5.87
2017-12-19T23:09:36.028Z,5.91
2017-12-19T23:12:08.519Z,5.93
2017-12-19T23:14:41.031Z,5.77
2017-12-19T23:17:13.524Z,5.71
2017-12-19T23:19:46.041Z,5.71
2017-12-19T23:22:19.544Z,5.73
2017-12-19T23:24:52.065Z,5.66
2017-12-19T23:27:24.860Z,5.55
2017-12-19T23:29:57.384Z,5.56
2017-12-19T23:32:29.883Z,5.52
2017-12-19T23:35:02.400Z,5.59
2017-12-19T23:37:34.901Z,5.62
2017-12-19T23:40:07.415Z,5.65
2017-12-19T23:42:39.920Z,5.69
2017-12-19T23:45:12.427Z,5.68
2017-12-19T23:47:51.220Z,5.76
2017-12-19T23:50:25.564Z,5.74
2017-12-19T23:52:58.206Z,5.69
2017-12-19T23:55:30.808Z,5.80
2017-12-19T23:58:03.684Z,5.84
